Time;durP1;ratioP1;P1;durP2;ratioP2;P2;SDS_P1;SDS_P2;PMS_P1;PMS_P2;Temp;Humidity;BMP_temperature;BMP_pressure;BME280_temperature;BME280_humidity;BME280_pressure;Samples;Min_cycle;Max_cycle;Signal;HPM_P1;HPM_P2
2024/03/29 01:43:35;;;;;;;5.22;1.50;;;;;;;6.47;100.00;98432.25;5066340;28;20154;-75
2024/03/29 01:46:06;;;;;;;2.92;1.45;;;;;;;6.82;100.00;98469.53;5055562;28;20681;-76
2024/03/29 01:48:33;;;;;;;;;;;;;;;6.84;100.00;98448.41;5073548;28;20051;-75
2024/03/29 01:51:01;;;;;;;3.50;1.30;;;;;;;6.60;100.00;98414.81;5072819;28;20018;-75
2024/03/29 01:53:29;;;;;;;6.05;1.70;;;;;;;6.89;100.00;98462.13;5082826;28;20063;-75
2024/03/29 01:55:56;;;;;;;4.93;1.30;;;;;;;6.80;100.00;98433.75;5072101;28;20036;-75
2024/03/29 01:58:25;;;;;;;5.68;1.60;;;;;;;6.88;100.00;98442.00;5090388;28;20039;-75
2024/03/29 02:00:54;;;;;;;3.42;1.40;;;;;;;6.69;100.00;98406.34;5085927;28;20505;-76
2024/03/29 02:03:22;;;;;;;5.13;1.70;;;;;;;6.84;100.00;98428.19;5065681;28;20104;-76
2024/03/29 02:05:49;;;;;;;3.92;1.20;;;;;;;6.66;100.00;98398.63;5086791;28;20039;-76
2024/03/29 02:08:17;;;;;;;5.90;1.40;;;;;;;6.81;100.00;98420.50;5083393;28;20032;-76
2024/03/29 02:10:44;;;;;;;3.90;1.25;;;;;;;6.74;100.00;98407.84;5072106;28;20088;-76
2024/03/29 02:13:11;;;;;;;4.75;1.40;;;;;;;6.81;100.00;98435.44;5067575;28;20600;-75
2024/03/29 02:15:40;;;;;;;2.92;1.20;;;;;;;6.68;100.00;98430.09;5054493;28;20937;-75
2024/03/29 02:18:08;;;;;;;3.67;1.45;;;;;;;6.82;100.00;98440.59;5092958;28;20547;-75
2024/03/29 02:20:39;;;;;;;4.45;1.42;;;;;;;6.85;100.00;98455.34;5106799;28;20059;-75
2024/03/29 02:23:09;;;;;;;4.50;1.42;;;;;;;6.87;100.00;98467.47;5064687;28;20112;-76
2024/03/29 02:25:38;;;;;;;2.72;1.30;;;;;;;6.88;100.00;98466.53;5103923;28;20069;-75
2024/03/29 02:28:07;;;;;;;2.65;1.35;;;;;;;6.86;100.00;98481.56;5081779;28;20088;-76
2024/03/29 02:30:34;;;;;;;3.70;1.40;;;;;;;6.84;100.00;98487.88;5072458;28;20066;-76
2024/03/29 02:33:02;;;;;;;3.53;1.30;;;;;;;6.69;100.00;98463.34;5102798;28;20086;-76
2024/03/29 02:35:30;;;;;;;5.03;1.77;;;;;;;6.71;100.00;98456.22;5100745;28;20071;-75
2024/03/29 02:37:58;;;;;;;2.85;1.40;;;;;;;6.80;100.00;98486.34;5089551;28;20043;-75
2024/03/29 02:40:24;;;;;;;4.93;1.88;;;;;;;6.79;100.00;98474.13;5107702;28;20509;-75
2024/03/29 02:42:53;;;;;;;4.07;1.60;;;;;;;6.81;100.00;98483.63;5103925;28;20086;-75
2024/03/29 02:45:21;;;;;;;2.72;1.48;;;;;;;6.68;100.00;98462.50;5100136;28;20062;-75
2024/03/29 02:47:48;;;;;;;5.18;1.85;;;;;;;6.80;100.00;98481.09;5091205;28;20040;-75
2024/03/29 02:50:15;;;;;;;4.85;1.90;;;;;;;6.78;100.00;98468.03;5093202;28;20117;-75
2024/03/29 02:52:42;;;;;;;5.38;1.85;;;;;;;6.65;100.00;98446.06;5110795;28;20119;-75
2024/03/29 02:55:10;;;;;;;5.00;2.03;;;;;;;6.34;100.00;98405.03;5106338;27;20070;-76
2024/03/29 02:57:37;;;;;;;3.92;2.08;;;;;;;6.66;100.00;98459.13;5093883;28;20066;-75
2024/03/29 03:00:09;;;;;;;3.95;2.03;;;;;;;6.77;100.00;98473.41;5093144;28;20410;-75
2024/03/29 03:02:40;;;;;;;6.22;2.25;;;;;;;6.64;100.00;98454.91;5105945;28;20055;-75
2024/03/29 03:05:08;;;;;;;3.25;1.88;;;;;;;6.66;100.00;98448.59;5086707;28;20476;-75
2024/03/29 03:13:05;;;;;;;3.97;1.83;;;;;;;6.62;100.00;98407.66;5087526;28;20044;-75
2024/03/29 03:15:33;;;;;;;4.32;1.70;;;;;;;6.86;100.00;98428.09;5107619;28;20115;-75
2024/03/29 03:18:00;;;;;;;4.88;1.70;;;;;;;6.77;100.00;98418.19;5112823;27;20094;-77
2024/03/29 03:20:30;;;;;;;5.65;1.70;;;;;;;6.28;100.00;98330.06;5108655;27;20425;-75
2024/03/29 03:23:01;;;;;;;4.00;1.50;;;;;;;6.79;100.00;98442.56;5107868;27;20035;-75
2024/03/29 03:25:27;;;;;;;;;;;;;;;6.88;100.00;98486.75;5104132;27;20050;-75
2024/03/29 03:27:55;;;;;;;3.90;1.55;;;;;;;6.43;100.00;98415.00;5110050;27;20397;-76
2024/03/29 03:30:22;;;;;;;4.05;1.17;;;;;;;6.72;100.00;98451.81;5114127;27;20058;-76
2024/03/29 03:32:50;;;;;;;3.45;1.27;;;;;;;6.42;100.00;98389.66;5106909;27;20047;-77
2024/03/29 03:35:17;;;;;;;3.78;1.65;;;;;;;7.04;100.00;98495.38;5125558;27;20051;-75
2024/03/29 03:37:44;;;;;;;2.78;1.40;;;;;;;7.06;100.00;98490.84;5095894;27;20126;-76
2024/03/29 03:40:11;;;;;;;3.58;1.52;;;;;;;7.11;100.00;98503.72;5096435;27;20059;-75
2024/03/29 03:42:39;;;;;;;4.47;1.45;;;;;;;7.12;100.00;98492.25;5093883;27;20063;-76
2024/03/29 03:45:07;;;;;;;2.10;1.05;;;;;;;7.14;100.00;98472.78;5098083;27;20382;-75
2024/03/29 03:47:34;;;;;;;2.97;1.40;;;;;;;6.90;100.00;98414.69;5093089;27;20153;-75
2024/03/29 03:50:02;;;;;;;3.65;1.27;;;;;;;7.18;100.00;98462.91;5112277;27;20409;-75
2024/03/29 03:52:29;;;;;;;2.95;1.40;;;;;;;7.21;100.00;98449.56;5095893;27;20542;-77
2024/03/29 03:54:56;;;;;;;6.38;1.50;;;;;;;7.11;100.00;98435.28;5107550;27;20158;-75
2024/03/29 03:57:23;;;;;;;3.47;1.33;;;;;;;7.19;100.00;98440.91;5077364;27;20414;-75
2024/03/29 03:59:49;;;;;;;3.58;1.50;;;;;;;7.14;100.00;98459.63;5095754;27;20065;-75
2024/03/29 04:02:16;;;;;;;3.90;1.52;;;;;;;7.19;100.00;98477.75;5093329;27;20126;-75
2024/03/29 04:04:41;;;;;;;4.18;1.70;;;;;;;7.06;100.00;98472.44;5103010;27;20058;-75
2024/03/29 04:07:09;;;;;;;3.00;1.40;;;;;;;7.14;100.00;98490.34;5076996;27;20092;-75
2024/03/29 04:09:36;;;;;;;2.22;1.25;;;;;;;7.15;100.00;98489.41;5097443;27;20027;-76
2024/03/29 04:12:03;;;;;;;2.90;1.50;;;;;;;6.77;100.00;98426.88;5090388;27;20445;-74
2024/03/29 04:14:29;;;;;;;4.18;1.80;;;;;;;7.08;100.00;98494.25;5067530;27;20071;-76
2024/03/29 04:16:56;;;;;;;3.75;1.50;;;;;;;7.13;100.00;98489.50;5099572;27;20050;-76
2024/03/29 04:19:23;;;;;;;2.95;1.20;;;;;;;6.79;100.00;98437.31;5093658;27;20430;-76
2024/03/29 04:21:50;;;;;;;3.88;1.33;;;;;;;7.12;100.00;98473.81;5107936;27;20035;-76
2024/03/29 04:24:18;;;;;;;2.95;1.33;;;;;;;6.80;100.00;98416.19;5086802;27;20130;-77
2024/03/29 04:26:44;;;;;;;7.63;1.75;;;;;;;6.94;100.00;98452.13;5094996;27;20062;-74
2024/03/29 04:29:11;;;;;;;3.55;1.50;;;;;;;5.82;100.00;98295.25;5074969;27;20077;-76
2024/03/29 04:31:37;;;;;;;5.00;1.55;;;;;;;6.86;100.00;98454.41;5092307;27;20119;-76
2024/03/29 04:34:03;;;;;;;3.38;1.30;;;;;;;6.82;100.00;98456.38;5107666;27;20054;-76
2024/03/29 04:36:31;;;;;;;3.80;1.40;;;;;;;6.76;100.00;98453.31;5101933;27;20043;-76
2024/03/29 04:38:58;;;;;;;4.63;1.63;;;;;;;6.78;100.00;98454.03;5105942;27;20071;-75
2024/03/29 04:41:27;;;;;;;2.85;1.35;;;;;;;6.18;100.00;98343.84;5085520;28;20077;-76
2024/03/29 04:43:54;;;;;;;2.92;1.38;;;;;;;6.63;100.00;98425.13;5119619;27;20051;-80
2024/03/29 04:46:22;;;;;;;3.58;1.35;;;;;;;6.36;100.00;98376.03;5134284;27;20027;-78
2024/03/29 04:48:51;;;;;;;2.45;1.30;;;;;;;6.73;100.00;98427.19;5133721;27;20088;-76
2024/03/29 04:51:18;;;;;;;4.15;1.40;;;;;;;6.71;100.00;98429.06;5123648;27;21157;-75
2024/03/29 04:53:46;;;;;;;3.95;1.80;;;;;;;6.72;100.00;98442.13;5094913;27;20062;-75
2024/03/29 04:56:15;;;;;;;4.53;1.42;;;;;;;6.75;100.00;98425.31;5098523;27;20059;-74
2024/03/29 04:58:45;;;;;;;3.50;1.52;;;;;;;6.74;100.00;98427.09;5093131;27;20416;-75
2024/03/29 05:01:12;;;;;;;3.90;1.50;;;;;;;6.53;100.00;98391.63;5110981;27;20114;-74
2024/03/29 05:03:39;;;;;;;3.33;1.50;;;;;;;6.78;100.00;98433.00;5093243;27;20074;-75
2024/03/29 05:06:07;;;;;;;4.20;1.90;;;;;;;6.79;100.00;98427.63;5087690;27;20039;-74
2024/03/29 05:08:37;;;;;;;4.22;1.50;;;;;;;6.83;100.00;98430.94;5108367;27;20078;-74
2024/03/29 05:11:05;;;;;;;5.03;1.70;;;;;;;6.74;100.00;98421.84;5089243;27;20081;-74
2024/03/29 05:13:32;;;;;;;3.13;1.58;;;;;;;6.81;100.00;98431.03;5092004;27;20382;-75
2024/03/29 05:16:00;;;;;;;5.28;1.65;;;;;;;6.81;100.00;98427.53;5093132;27;20417;-74
2024/03/29 05:18:27;;;;;;;5.80;1.90;;;;;;;6.91;100.00;98452.34;5105981;27;20063;-75
2024/03/29 05:20:54;;;;;;;3.92;1.60;;;;;;;6.66;100.00;98414.41;5109906;27;20081;-74
2024/03/29 05:23:23;;;;;;;3.13;1.73;;;;;;;6.92;100.00;98454.03;5092458;27;20119;-74
2024/03/29 05:25:52;;;;;;;5.72;2.10;;;;;;;6.92;100.00;98454.91;5100114;27;20038;-75
2024/03/29 05:28:19;;;;;;;7.13;1.52;;;;;;;6.84;100.00;98440.50;5091267;27;20453;-73
2024/03/29 05:30:46;;;;;;;5.65;2.28;;;;;;;6.98;100.00;98456.28;5092077;27;20505;-74
2024/03/29 05:33:15;;;;;;;3.75;1.83;;;;;;;6.97;100.00;98462.47;5091624;27;20074;-74
2024/03/29 05:35:42;;;;;;;4.63;1.85;;;;;;;6.95;100.00;98456.47;5103293;27;20078;-73
2024/03/29 05:38:10;;;;;;;5.93;2.17;;;;;;;6.33;100.00;98363.94;5108253;27;20129;-73
2024/03/29 05:40:37;;;;;;;5.63;1.95;;;;;;;6.87;100.00;98464.84;5090394;28;20067;-72
2024/03/29 05:43:05;;;;;;;5.68;2.05;;;;;;;6.43;100.00;98408.91;5076405;28;20474;-72
2024/03/29 05:45:32;;;;;;;4.28;1.90;;;;;;;6.65;100.00;98457.44;5069480;28;20070;-73
2024/03/29 05:48:00;;;;;;;3.65;1.88;;;;;;;6.63;100.00;98469.84;5092562;28;20089;-73
2024/03/29 05:50:28;;;;;;;5.78;1.92;;;;;;;6.50;100.00;98457.53;5092047;28;20114;-73
2024/03/29 05:52:59;;;;;;;6.38;2.03;;;;;;;6.56;100.00;98473.78;5108928;28;20066;-75
2024/03/29 05:55:26;;;;;;;5.05;2.22;;;;;;;6.52;100.00;98480.16;5087972;28;20051;-73
2024/03/29 05:57:53;;;;;;;6.13;1.92;;;;;;;6.51;100.00;98485.50;5075237;28;20043;-73
2024/03/29 06:00:21;;;;;;;5.18;2.13;;;;;;;6.07;100.00;98419.88;5109640;28;20082;-74
2024/03/29 06:02:48;;;;;;;4.90;2.15;;;;;;;6.49;100.00;98496.13;5090803;28;20031;-73
2024/03/29 06:05:16;;;;;;;5.72;2.25;;;;;;;6.31;100.00;98466.53;5057918;28;20118;-72
2024/03/29 06:07:45;;;;;;;5.55;2.28;;;;;;;6.53;100.00;98500.28;5092862;28;20070;-72
2024/03/29 06:10:11;;;;;;;8.23;2.53;;;;;;;6.49;100.00;98495.28;5092733;28;20122;-73
2024/03/29 06:12:38;;;;;;;6.45;2.08;;;;;;;6.56;100.00;98505.34;5078946;28;20062;-73
2024/03/29 06:17:51;;;;;;;6.15;2.60;;;;;;;6.61;100.00;98505.91;5091890;28;20512;-73
2024/03/29 06:20:18;;;;;;;5.97;2.83;;;;;;;6.54;100.00;98494.06;5091506;27;20035;-72
2024/03/29 06:22:48;;;;;;;5.50;2.42;;;;;;;6.60;100.00;98512.13;5110706;27;20559;-73
2024/03/29 06:25:17;;;;;;;5.15;2.38;;;;;;;6.51;100.00;98501.28;5071607;27;20062;-72
2024/03/29 06:27:47;;;;;;;6.90;2.65;;;;;;;6.28;100.00;98466.75;5113731;27;20039;-73
2024/03/29 06:30:16;;;;;;;3.40;2.17;;;;;;;6.37;100.00;98477.63;5097123;27;20077;-72
2024/03/29 06:32:45;;;;;;;4.57;2.33;;;;;;;6.61;100.00;98518.22;5093387;27;20039;-72
2024/03/29 06:35:13;;;;;;;4.30;2.50;;;;;;;6.61;100.00;98515.59;5088466;27;20047;-73
2024/03/29 06:37:40;;;;;;;7.70;2.63;;;;;;;6.59;100.00;98513.06;5088529;27;20065;-71
2024/03/29 06:40:11;;;;;;;6.32;2.70;;;;;;;6.61;100.00;98511.16;5109954;27;20137;-71
2024/03/29 06:42:39;;;;;;;7.18;2.38;;;;;;;6.62;100.00;98504.09;5097053;27;20042;-71
2024/03/29 06:45:06;;;;;;;5.63;2.75;;;;;;;6.64;100.00;98507.50;5090328;27;20154;-71
2024/03/29 06:47:33;;;;;;;5.03;2.63;;;;;;;6.66;100.00;98505.63;5109856;27;20069;-71
2024/03/29 06:50:00;;;;;;;5.63;2.45;;;;;;;6.68;100.00;98501.97;5111170;27;20126;-71
2024/03/29 06:52:27;;;;;;;5.60;2.92;;;;;;;6.71;100.00;98521.97;5087541;27;20067;-71
2024/03/29 06:54:53;;;;;;;4.10;2.45;;;;;;;6.56;100.00;98478.19;5107429;27;20063;-71
2024/03/29 06:57:25;;;;;;;5.88;2.88;;;;;;;6.70;100.00;98507.13;5109585;27;20078;-71
2024/03/29 06:59:52;;;;;;;5.63;2.65;;;;;;;6.74;100.00;98500.75;5061525;27;20071;-71
2024/03/29 07:02:19;;;;;;;7.80;2.92;;;;;;;6.80;100.00;98512.66;5092907;27;20404;-71
2024/03/29 07:04:45;;;;;;;4.22;2.67;;;;;;;6.84;100.00;98508.91;5073734;27;20078;-71
2024/03/29 07:07:12;;;;;;;5.13;2.92;;;;;;;6.89;100.00;98509.47;5109048;27;20127;-70
2024/03/29 07:09:39;;;;;;;5.28;2.88;;;;;;;6.92;100.00;98512.78;5095535;27;20042;-71
2024/03/29 07:12:06;;;;;;;4.60;2.72;;;;;;;6.92;100.00;98511.94;5092386;27;20572;-72
2024/03/29 07:14:35;;;;;;;5.95;3.00;;;;;;;6.98;100.00;98522.91;5089369;27;20547;-72
2024/03/29 07:17:02;;;;;;;6.32;2.90;;;;;;;7.00;100.00;98526.28;5092249;27;20035;-71
2024/03/29 07:19:29;;;;;;;4.03;2.88;;;;;;;7.00;100.00;98520.19;5109457;27;20497;-72
2024/03/29 07:21:59;;;;;;;5.50;2.75;;;;;;;7.09;100.00;98516.97;5093779;27;20405;-70
2024/03/29 07:24:27;;;;;;;4.40;3.17;;;;;;;7.13;100.00;98515.84;5106516;27;20068;-72
2024/03/29 07:26:54;;;;;;;5.82;3.53;;;;;;;7.15;100.00;98513.09;5107882;27;20126;-71
2024/03/29 07:29:21;;;;;;;8.02;3.15;;;;;;;7.19;100.00;98518.09;5095312;27;20069;-71
2024/03/29 07:31:49;;;;;;;6.15;3.20;;;;;;;6.97;100.00;98476.47;5082614;27;20089;-71
2024/03/29 07:34:16;;;;;;;5.22;3.13;;;;;;;7.28;100.00;98514.88;5105376;27;20154;-72
2024/03/29 07:36:43;;;;;;;4.95;3.20;;;;;;;7.32;100.00;98526.91;5088357;27;20078;-71
2024/03/29 07:39:11;;;;;;;6.43;3.50;;;;;;;7.36;100.00;98523.13;5093002;27;20457;-71
2024/03/29 07:41:38;;;;;;;6.43;3.35;;;;;;;7.42;100.00;98523.66;5111330;27;20063;-70
2024/03/29 07:44:05;;;;;;;5.70;3.70;;;;;;;7.40;100.00;98524.63;5108456;27;20544;-71
2024/03/29 07:46:35;;;;;;;6.28;3.75;;;;;;;7.36;100.00;98507.34;5104601;27;20077;-71
2024/03/29 07:49:06;;;;;;;6.95;4.30;;;;;;;7.37;100.00;98511.66;5096697;27;20115;-71
2024/03/29 07:51:32;;;;;;;6.28;4.03;;;;;;;7.44;100.00;98508.63;5113004;27;20043;-71
2024/03/29 07:53:59;;;;;;;6.20;3.75;;;;;;;7.44;100.00;98508.63;5094568;27;20118;-71
2024/03/29 07:56:27;;;;;;;7.55;5.43;;;;;;;7.25;100.00;98472.94;5108792;27;20058;-70
2024/03/29 07:58:54;;;;;;;8.13;4.72;;;;;;;7.42;100.00;98511.34;5112388;27;20535;-70
2024/03/29 08:01:21;;;;;;;7.47;4.78;;;;;;;7.23;100.00;98482.75;5092133;27;20063;-71
2024/03/29 08:03:53;;;;;;;12.23;4.80;;;;;;;7.00;100.00;98439.44;5092337;27;20237;-71
2024/03/29 08:06:23;;;;;;;8.70;4.80;;;;;;;7.35;100.00;98487.22;5103724;27;20031;-71
2024/03/29 08:08:50;;;;;;;6.00;4.73;;;;;;;7.43;100.00;98512.19;5091978;27;20031;-71
2024/03/29 08:11:17;;;;;;;7.00;4.65;;;;;;;7.46;100.00;98512.00;5093799;27;20560;-71
2024/03/29 08:13:44;;;;;;;9.30;4.82;;;;;;;7.50;100.00;98500.34;5111279;27;20481;-71
2024/03/29 08:16:12;;;;;;;7.82;4.90;;;;;;;7.53;100.00;98495.72;5107474;27;20047;-71
2024/03/29 08:18:39;;;;;;;6.85;4.82;;;;;;;7.67;100.00;98503.56;5076715;27;20060;-71
2024/03/29 08:21:11;;;;;;;8.00;4.28;;;;;;;7.70;100.00;98500.75;5074715;27;20058;-72
2024/03/29 08:23:43;;;;;;;6.28;4.40;;;;;;;7.71;100.00;98501.59;5097304;27;20039;-71
2024/03/29 08:26:11;;;;;;;10.80;5.30;;;;;;;7.59;100.00;98476.03;5104004;27;20066;-71
2024/03/29 08:28:38;;;;;;;8.45;5.15;;;;;;;7.79;100.00;98504.56;5075917;27;20141;-71
2024/03/29 08:31:09;;;;;;;7.32;4.90;;;;;;;7.63;100.00;98478.38;5105888;27;20127;-72
2024/03/29 08:33:37;;;;;;;;;;;;;;;7.89;100.00;98515.31;5093436;27;20623;-72
2024/03/29 08:36:05;;;;;;;7.97;4.50;;;;;;;7.92;100.00;98515.13;5088559;27;20730;-71
2024/03/29 08:38:31;;;;;;;10.05;4.90;;;;;;;7.98;100.00;98520.00;5090056;27;20470;-71
2024/03/29 08:40:59;;;;;;;6.78;4.63;;;;;;;8.02;100.00;98517.06;5097484;27;20086;-72
2024/03/29 08:43:26;;;;;;;7.93;4.57;;;;;;;8.06;100.00;98523.81;5074232;27;20500;-72
2024/03/29 08:45:53;;;;;;;8.02;4.60;;;;;;;8.06;100.00;98528.22;5103324;27;20071;-72
2024/03/29 08:48:20;;;;;;;7.30;4.45;;;;;;;8.06;100.00;98525.59;5091440;27;20058;-71
2024/03/29 08:50:47;;;;;;;7.63;5.03;;;;;;;8.05;100.00;98524.75;5106995;27;20154;-71
2024/03/29 08:53:14;;;;;;;7.70;4.50;;;;;;;8.07;100.00;98536.03;5092574;27;20059;-71
2024/03/29 08:55:40;;;;;;;8.90;5.20;;;;;;;7.97;100.00;98515.69;5103963;27;20059;-71
2024/03/29 08:58:08;;;;;;;8.90;4.65;;;;;;;8.07;100.00;98541.31;5108084;27;20074;-72
2024/03/29 09:00:35;;;;;;;6.53;4.88;;;;;;;7.84;100.00;98513.00;5109775;27;20508;-73
2024/03/29 09:03:02;;;;;;;7.97;4.68;;;;;;;8.05;100.00;98553.75;5094090;27;20062;-72
2024/03/29 09:05:29;;;;;;;10.20;5.82;;;;;;;8.12;100.00;98564.75;5057774;27;20062;-72
2024/03/29 09:07:56;;;;;;;8.00;5.32;;;;;;;8.08;100.00;98558.81;5087540;27;20068;-73
2024/03/29 09:10:24;;;;;;;7.68;4.75;;;;;;;8.19;100.00;98571.28;5108340;27;20645;-71
2024/03/29 09:12:51;;;;;;;8.88;5.22;;;;;;;8.26;100.00;98580.50;5105770;27;20128;-73
2024/03/29 09:15:19;;;;;;;15.13;5.72;;;;;;;8.35;100.00;98577.28;5106117;27;20043;-72
2024/03/29 09:17:47;;;;;;;8.60;5.57;;;;;;;8.43;100.00;98585.53;5104340;27;20066;-73
2024/03/29 09:20:14;;;;;;;8.32;5.10;;;;;;;8.46;100.00;98591.56;5105266;27;20097;-72
2024/03/29 09:22:41;;;;;;;8.25;5.22;;;;;;;8.39;100.00;98583.19;5105833;27;20061;-74
2024/03/29 09:25:13;;;;;;;8.68;5.15;;;;;;;8.36;100.00;98599.22;5126398;27;20087;-73
2024/03/29 09:27:42;;;;;;;7.20;5.38;;;;;;;8.40;100.00;98604.19;5142892;27;20307;-72
2024/03/29 09:30:11;;;;;;;7.00;5.40;;;;;;;8.49;100.00;98607.19;5134090;27;20053;-72
2024/03/29 09:32:40;;;;;;;10.20;5.82;;;;;;;8.46;100.00;98587.13;5116545;27;20034;-71
2024/03/29 09:35:07;;;;;;;9.10;5.75;;;;;;;8.58;100.00;98602.13;5126477;28;20056;-72
2024/03/29 09:37:36;;;;;;;9.50;6.28;;;;;;;8.57;100.00;98603.06;5102439;28;20447;-72
2024/03/29 09:40:05;;;;;;;10.70;6.30;;;;;;;8.59;100.00;98609.09;5103472;27;20075;-72
2024/03/29 09:42:34;;;;;;;9.30;5.93;;;;;;;8.60;100.00;98581.75;5108461;28;20073;-71
2024/03/29 09:45:04;;;;;;;8.70;6.13;;;;;;;8.49;100.00;98563.19;5104929;28;20043;-71
2024/03/29 09:47:32;;;;;;;14.20;6.03;;;;;;;8.73;100.00;98594.97;5088262;28;20122;-73
2024/03/29 09:50:04;;;;;;;7.68;6.28;;;;;;;8.94;100.00;98600.56;5107168;28;20390;-72
2024/03/29 09:52:32;;;;;;;;;;;;;;;9.10;100.00;98614.41;5089395;28;20104;-72
2024/03/29 09:55:00;;;;;;;8.85;5.55;;;;;;;9.14;100.00;98619.34;5090042;27;20412;-72
2024/03/29 09:57:29;;;;;;;8.85;5.70;;;;;;;9.12;100.00;98609.88;5096555;27;20066;-71
2024/03/29 09:59:56;;;;;;;8.35;5.55;;;;;;;9.09;100.00;98612.72;5091691;27;20040;-71
2024/03/29 10:02:28;;;;;;;8.38;5.93;;;;;;;9.09;100.00;98620.63;5098855;27;20063;-72
2024/03/29 10:04:58;;;;;;;7.88;5.70;;;;;;;9.01;100.00;98634.34;5078601;27;20063;-72
2024/03/29 10:07:27;;;;;;;9.75;6.13;;;;;;;8.99;100.00;98645.97;5104069;27;20122;-71
2024/03/29 10:09:54;;;;;;;12.38;6.38;;;;;;;9.03;100.00;98632.47;5092566;27;20160;-71
2024/03/29 10:12:21;;;;;;;12.65;6.70;;;;;;;9.15;100.00;98625.47;5095781;27;20570;-70
2024/03/29 10:14:52;;;;;;;8.50;6.85;;;;;;;9.29;100.00;98635.94;5093340;27;20078;-73
2024/03/29 10:17:19;;;;;;;9.00;6.90;;;;;;;9.39;100.00;98639.63;5088069;27;20074;-72
2024/03/29 10:19:47;;;;;;;7.05;5.78;;;;;;;9.38;100.00;98637.09;5088109;27;20118;-72
2024/03/29 10:22:15;;;;;;;7.72;5.38;;;;;;;9.33;100.00;98634.78;5099044;27;20039;-70
2024/03/29 10:24:42;;;;;;;7.90;4.53;;;;;;;9.31;100.00;98636.66;5078797;27;20602;-71
2024/03/29 10:27:09;;;;;;;5.82;3.45;;;;;;;9.34;100.00;98644.38;5107583;27;20074;-70
2024/03/29 10:29:36;;;;;;;7.13;4.05;;;;;;;9.52;100.00;98654.63;5096753;27;20458;-71
2024/03/29 10:32:05;;;;;;;5.85;3.47;;;;;;;9.63;100.00;98652.91;5113900;27;20557;-70
2024/03/29 10:34:36;;;;;;;4.53;2.80;;;;;;;9.62;100.00;98648.56;5091736;28;20082;-70
2024/03/29 10:37:03;;;;;;;4.65;3.00;;;;;;;9.66;100.00;98643.91;5103341;27;20078;-70
2024/03/29 10:39:31;;;;;;;4.88;2.72;;;;;;;9.66;100.00;98638.63;5090328;27;20066;-72
2024/03/29 10:42:00;;;;;;;4.95;2.60;;;;;;;9.72;100.00;98652.28;5094985;27;20540;-71
2024/03/29 10:44:29;;;;;;;6.00;3.08;;;;;;;9.79;100.00;98653.50;5111956;27;20454;-71
2024/03/29 10:46:59;;;;;;;3.03;2.40;;;;;;;9.74;100.00;98636.31;5084716;27;21022;-71
2024/03/29 10:49:26;;;;;;;4.70;2.70;;;;;;;9.88;100.00;98640.59;5095440;27;20488;-72
2024/03/29 10:51:56;;;;;;;4.80;2.50;;;;;;;9.99;100.00;98636.22;5097092;27;20613;-71
2024/03/29 10:54:23;;;;;;;4.68;2.78;;;;;;;10.11;100.00;98629.19;5094878;27;20082;-71
2024/03/29 10:57:00;;;;;;;6.97;2.55;;;;;;;10.13;100.00;98624.63;5105005;27;20044;-71
2024/03/29 10:59:37;;;;;;;6.43;2.53;;;;;;;10.10;100.00;98612.47;5095133;27;20092;-71
2024/03/29 11:02:13;;;;;;;4.90;2.45;;;;;;;9.81;100.00;98574.09;5091469;27;20071;-71
2024/03/29 11:04:43;;;;;;;6.18;2.40;;;;;;;9.85;100.00;98584.34;5096505;27;20063;-72
2024/03/29 11:07:20;;;;;;;6.20;2.80;;;;;;;9.90;100.00;98589.31;5105263;27;20090;-71
2024/03/29 11:09:52;;;;;;;3.38;2.08;;;;;;;9.89;100.00;98587.63;5110884;27;20515;-73
2024/03/29 11:12:23;;;;;;;3.53;2.38;;;;;;;10.02;100.00;98606.06;5112050;27;20584;-72
2024/03/29 11:14:55;;;;;;;;;;;;;;;10.03;100.00;98618.34;5110031;27;20138;-71
2024/03/29 11:17:23;;;;;;;2.67;1.80;;;;;;;9.90;100.00;98589.31;5090213;27;19973;-72
2024/03/29 11:19:50;;;;;;;3.47;1.70;;;;;;;9.90;100.00;98584.03;5090496;27;20379;-70
2024/03/29 11:22:17;;;;;;;3.10;1.80;;;;;;;9.63;100.00;98533.13;5078340;28;20032;-71
2024/03/29 11:24:46;;;;;;;2.60;1.70;;;;;;;10.10;100.00;98587.81;5087547;27;20058;-70
2024/03/29 11:27:15;;;;;;;4.40;2.20;;;;;;;10.17;100.00;98589.91;5077072;27;20942;-71
2024/03/29 11:29:45;;;;;;;2.92;1.80;;;;;;;10.24;100.00;98590.31;5108697;27;20063;-71
2024/03/29 11:32:13;;;;;;;4.15;1.80;;;;;;;10.26;100.00;98593.72;5110732;27;20027;-71
2024/03/29 11:34:44;;;;;;;3.42;1.70;;;;;;;10.30;100.00;98594.31;5091781;27;20066;-70
2024/03/29 11:37:12;;;;;;;2.67;1.63;;;;;;;10.27;100.00;98578.69;5088109;27;20039;-73
2024/03/29 11:39:40;;;;;;;4.32;1.80;;;;;;;10.34;100.00;98596.63;5111035;27;20122;-73
2024/03/29 11:42:07;;;;;;;3.13;1.70;;;;;;;10.30;100.00;98597.81;5095128;27;20047;-71
2024/03/29 11:44:35;;;;;;;2.80;1.30;;;;;;;10.27;100.00;98615.72;5109958;27;20110;-72
2024/03/29 11:47:07;;;;;;;2.95;1.73;;;;;;;10.10;100.00;98624.84;5102026;27;20082;-71
2024/03/29 11:49:34;;;;;;;4.40;1.85;;;;;;;10.01;100.00;98639.59;5078554;27;20066;-72
2024/03/29 11:52:06;;;;;;;3.10;1.67;;;;;;;9.95;100.00;98653.25;5111292;27;20035;-72
2024/03/29 11:54:39;;;;;;;3.33;1.75;;;;;;;9.93;100.00;98660.44;5109346;27;20497;-72
2024/03/29 11:57:06;;;;;;;4.45;2.15;;;;;;;9.91;100.00;98654.44;5089887;27;20070;-71
2024/03/29 11:59:33;;;;;;;2.35;1.83;;;;;;;9.65;100.00;98614.00;5092584;27;20111;-73
2024/03/29 12:02:00;;;;;;;5.43;2.20;;;;;;;9.63;100.00;98615.06;5104258;27;20103;-72
2024/03/29 12:04:29;;;;;;;5.03;2.60;;;;;;;9.89;100.00;98666.94;5110605;27;20232;-71
2024/03/29 12:06:56;;;;;;;6.47;3.08;;;;;;;9.88;100.00;98641.44;5105924;27;20066;-71
2024/03/29 12:09:23;;;;;;;5.82;2.95;;;;;;;9.89;100.00;98648.44;5112115;27;20184;-73
2024/03/29 12:11:52;;;;;;;5.85;3.47;;;;;;;9.92;100.00;98647.34;5093054;27;20413;-72
2024/03/29 12:14:19;;;;;;;8.27;3.42;;;;;;;9.92;100.00;98642.88;5108769;27;20142;-73
2024/03/29 12:16:46;;;;;;;5.40;3.33;;;;;;;9.83;100.00;98644.41;5107164;27;20043;-71
2024/03/29 12:19:23;;;;;;;4.32;3.22;;;;;;;9.84;100.00;98646.09;5106570;27;20692;-72
2024/03/29 12:21:51;;;;;;;7.00;3.10;;;;;;;9.82;100.00;98645.38;5077254;27;20114;-73
2024/03/29 12:24:19;;;;;;;4.75;3.10;;;;;;;9.92;100.00;98649.97;5091756;27;20483;-72
2024/03/29 12:26:49;;;;;;;4.85;3.45;;;;;;;9.93;100.00;98646.38;5092040;27;20378;-72
2024/03/29 12:29:16;;;;;;;5.07;3.17;;;;;;;9.90;100.00;98652.75;5074030;27;20113;-72
2024/03/29 12:31:44;;;;;;;4.35;3.13;;;;;;;9.99;100.00;98654.72;5105281;27;20059;-71
2024/03/29 12:34:11;;;;;;;6.25;3.58;;;;;;;10.14;100.00;98647.47;5108812;27;20036;-72
2024/03/29 12:36:38;;;;;;;5.28;3.50;;;;;;;10.31;100.00;98641.84;5068696;27;20134;-72
2024/03/29 12:39:07;;;;;;;4.85;3.67;;;;;;;10.42;100.00;98641.03;5090946;27;20720;-72
2024/03/29 12:41:35;;;;;;;6.78;3.88;;;;;;;10.43;100.00;98626.84;5089800;27;20138;-72
2024/03/29 12:44:02;;;;;;;5.75;3.92;;;;;;;10.59;100.00;98645.06;5111379;27;20118;-72
2024/03/29 12:46:29;;;;;;;7.32;4.70;;;;;;;10.62;100.00;98648.34;5127633;27;20067;-72
2024/03/29 12:49:00;;;;;;;9.38;5.25;;;;;;;10.63;100.00;98638.59;5104467;27;20078;-71
2024/03/29 12:51:29;;;;;;;10.82;5.03;;;;;;;10.59;100.00;98637.97;5107992;27;20048;-71
2024/03/29 12:54:00;;;;;;;5.82;4.80;;;;;;;10.65;100.00;98648.13;5108559;27;20103;-72
2024/03/29 12:56:28;;;;;;;5.85;4.45;;;;;;;10.61;100.00;98629.94;5075809;27;20064;-72
2024/03/29 12:58:55;;;;;;;7.88;4.68;;;;;;;10.75;100.00;98656.19;5103057;28;20066;-72
2024/03/29 13:01:23;;;;;;;9.27;4.95;;;;;;;10.78;100.00;98663.91;5106994;27;20449;-72
2024/03/29 13:03:50;;;;;;;7.07;4.43;;;;;;;10.74;100.00;98676.53;5093469;27;20146;-73
2024/03/29 13:06:17;;;;;;;6.07;4.20;;;;;;;10.66;100.00;98664.84;5092107;27;20059;-72
2024/03/29 13:08:44;;;;;;;4.65;3.83;;;;;;;10.77;100.00;98678.97;5104935;27;20500;-73
2024/03/29 13:11:11;;;;;;;8.75;4.50;;;;;;;10.83;100.00;98690.91;5093580;27;20689;-73
2024/03/29 13:13:39;;;;;;;8.60;4.40;;;;;;;10.70;100.00;98703.38;5107173;27;20501;-71
2024/03/29 13:16:06;;;;;;;8.48;4.97;;;;;;;10.72;100.00;98712.88;5093837;27;20580;-72
2024/03/29 13:18:34;;;;;;;9.68;5.60;;;;;;;10.75;100.00;98711.81;5092894;27;20539;-73
2024/03/29 13:21:02;;;;;;;8.45;5.15;;;;;;;10.73;100.00;98708.41;5065784;27;20142;-72
2024/03/29 13:23:32;;;;;;;8.13;4.80;;;;;;;10.75;100.00;98702.06;5075649;27;20070;-71
2024/03/29 13:26:00;;;;;;;7.57;4.50;;;;;;;10.86;100.00;98698.63;5091885;27;20541;-72
2024/03/29 13:28:30;;;;;;;7.70;4.90;;;;;;;10.99;100.00;98687.94;5103806;27;20043;-71